sensor_id;sensor_type;location;lat;lon;timestamp;pressure;altitude;pressure_sealevel;temperature;humidity
41945;BME280;63122;52.424;13.458;2022-11-11T00:01:11;102136.69;;;9.03;82.37
41945;BME280;63122;52.424;13.458;2022-11-11T00:03:45;102131.41;;;8.90;83.47
41945;BME280;63122;52.424;13.458;2022-11-11T00:06:15;102136.13;;;8.72;84.08
41945;BME280;63122;52.424;13.458;2022-11-11T00:08:46;102129.50;;;8.79;84.21
41945;BME280;63122;52.424;13.458;2022-11-11T00:11:17;102131.09;;;8.69;84.51
41945;BME280;63122;52.424;13.458;2022-11-11T00:13:47;102125.91;;;8.68;84.46
41945;BME280;63122;52.424;13.458;2022-11-11T00:16:19;102123.19;;;8.69;84.69
41945;BME280;63122;52.424;13.458;2022-11-11T00:18:52;102117.72;;;8.72;84.32
41945;BME280;63122;52.424;13.458;2022-11-11T00:21:35;102124.03;;;8.70;84.55
41945;BME280;63122;52.424;13.458;2022-11-11T00:24:23;102129.41;;;8.68;84.80
41945;BME280;63122;52.424;13.458;2022-11-11T00:27:06;102133.81;;;8.68;84.56
41945;BME280;63122;52.424;13.458;2022-11-11T00:29:37;102138.00;;;8.57;84.83
41945;BME280;63122;52.424;13.458;2022-11-11T00:32:08;102134.84;;;8.52;85.04
41945;BME280;63122;52.424;13.458;2022-11-11T00:34:58;102147.88;;;8.54;85.18
41945;BME280;63122;52.424;13.458;2022-11-11T00:37:42;102155.47;;;8.58;85.07
41945;BME280;63122;52.424;13.458;2022-11-11T00:40:12;102157.19;;;8.45;85.72
41945;BME280;63122;52.424;13.458;2022-11-11T00:42:43;102149.78;;;8.52;85.32
41945;BME280;63122;52.424;13.458;2022-11-11T00:45:13;102146.41;;;8.49;85.59
41945;BME280;63122;52.424;13.458;2022-11-11T00:47:44;102149.25;;;8.32;85.99
41945;BME280;63122;52.424;13.458;2022-11-11T00:50:29;102153.28;;;8.38;85.97
41945;BME280;63122;52.424;13.458;2022-11-11T00:53:14;102144.25;;;8.42;85.39
41945;BME280;63122;52.424;13.458;2022-11-11T00:55:52;102142.03;;;8.35;85.86
41945;BME280;63122;52.424;13.458;2022-11-11T00:58:23;102155.13;;;8.23;86.49
41945;BME280;63122;52.424;13.458;2022-11-11T01:00:55;102143.25;;;8.30;86.13
41945;BME280;63122;52.424;13.458;2022-11-11T01:03:27;102142.22;;;8.32;85.98
41945;BME280;63122;52.424;13.458;2022-11-11T01:06:02;102145.34;;;8.25;86.38
41945;BME280;63122;52.424;13.458;2022-11-11T01:08:33;102143.66;;;8.24;86.19
41945;BME280;63122;52.424;13.458;2022-11-11T01:11:11;102131.47;;;8.23;86.19
41945;BME280;63122;52.424;13.458;2022-11-11T01:13:42;102117.88;;;8.16;86.60
41945;BME280;63122;52.424;13.458;2022-11-11T01:16:14;102110.72;;;8.18;86.42
41945;BME280;63122;52.424;13.458;2022-11-11T01:18:46;102107.81;;;8.23;86.51
41945;BME280;63122;52.424;13.458;2022-11-11T01:21:20;102099.31;;;8.32;86.30
41945;BME280;63122;52.424;13.458;2022-11-11T01:23:52;102105.81;;;8.26;86.11
41945;BME280;63122;52.424;13.458;2022-11-11T01:26:24;102102.03;;;8.30;85.88
41945;BME280;63122;52.424;13.458;2022-11-11T01:28:58;102113.19;;;8.34;85.91
41945;BME280;63122;52.424;13.458;2022-11-11T01:31:28;102104.72;;;8.16;86.45
41945;BME280;63122;52.424;13.458;2022-11-11T01:33:59;102109.34;;;8.12;86.72
41945;BME280;63122;52.424;13.458;2022-11-11T01:36:32;102113.25;;;8.19;86.68
41945;BME280;63122;52.424;13.458;2022-11-11T01:39:03;102102.00;;;8.17;86.62
41945;BME280;63122;52.424;13.458;2022-11-11T01:41:34;102108.94;;;8.18;86.62
41945;BME280;63122;52.424;13.458;2022-11-11T01:44:18;102106.00;;;8.23;86.67
41945;BME280;63122;52.424;13.458;2022-11-11T01:46:50;102107.19;;;8.32;86.15
41945;BME280;63122;52.424;13.458;2022-11-11T01:49:26;102112.72;;;8.14;86.97
41945;BME280;63122;52.424;13.458;2022-11-11T01:52:03;102116.50;;;8.10;87.13
41945;BME280;63122;52.424;13.458;2022-11-11T01:54:39;102125.00;;;8.14;87.23
41945;BME280;63122;52.424;13.458;2022-11-11T01:57:15;102113.88;;;8.10;87.43
41945;BME280;63122;52.424;13.458;2022-11-11T01:59:50;102107.97;;;8.06;87.39
41945;BME280;63122;52.424;13.458;2022-11-11T02:02:32;102117.13;;;8.14;87.07
41945;BME280;63122;52.424;13.458;2022-11-11T02:05:06;102112.19;;;8.22;86.39
41945;BME280;63122;52.424;13.458;2022-11-11T02:08:24;102128.69;;;8.11;87.18
41945;BME280;63122;52.424;13.458;2022-11-11T02:11:05;102141.53;;;8.16;86.99
41945;BME280;63122;52.424;13.458;2022-11-11T02:13:37;102142.22;;;8.05;87.52
41945;BME280;63122;52.424;13.458;2022-11-11T02:16:22;102140.44;;;8.05;87.36
41945;BME280;63122;52.424;13.458;2022-11-11T02:18:53;102155.88;;;7.97;87.88
41945;BME280;63122;52.424;13.458;2022-11-11T02:21:29;102156.81;;;7.96;88.02
41945;BME280;63122;52.424;13.458;2022-11-11T02:24:07;102163.44;;;8.02;87.93
41945;BME280;63122;52.424;13.458;2022-11-11T02:26:39;102140.03;;;7.84;88.44
41945;BME280;63122;52.424;13.458;2022-11-11T02:29:14;102161.00;;;7.99;87.87
41945;BME280;63122;52.424;13.458;2022-11-11T02:31:46;102155.22;;;7.93;88.15
41945;BME280;63122;52.424;13.458;2022-11-11T02:34:16;102166.66;;;7.92;88.38
41945;BME280;63122;52.424;13.458;2022-11-11T02:36:46;102163.97;;;7.80;89.04
41945;BME280;63122;52.424;13.458;2022-11-11T02:39:19;102161.81;;;7.86;88.67
41945;BME280;63122;52.424;13.458;2022-11-11T02:41:58;102166.31;;;7.84;88.58
41945;BME280;63122;52.424;13.458;2022-11-11T02:44:31;102165.81;;;7.92;88.16
41945;BME280;63122;52.424;13.458;2022-11-11T02:47:01;102165.38;;;7.85;88.13
41945;BME280;63122;52.424;13.458;2022-11-11T02:49:31;102158.66;;;7.94;88.11
41945;BME280;63122;52.424;13.458;2022-11-11T02:52:02;102159.38;;;7.83;88.58
41945;BME280;63122;52.424;13.458;2022-11-11T02:54:35;102152.78;;;7.90;88.43
41945;BME280;63122;52.424;13.458;2022-11-11T02:57:06;102145.31;;;7.84;88.51
41945;BME280;63122;52.424;13.458;2022-11-11T02:59:38;102143.69;;;7.82;88.60
41945;BME280;63122;52.424;13.458;2022-11-11T03:02:09;102146.13;;;7.85;88.79
41945;BME280;63122;52.424;13.458;2022-11-11T03:04:39;102156.69;;;7.70;89.33
41945;BME280;63122;52.424;13.458;2022-11-11T03:07:09;102156.56;;;7.72;89.52
41945;BME280;63122;52.424;13.458;2022-11-11T03:09:42;102157.56;;;7.84;88.92
41945;BME280;63122;52.424;13.458;2022-11-11T03:12:13;102163.84;;;7.81;88.94
41945;BME280;63122;52.424;13.458;2022-11-11T03:14:43;102161.13;;;7.97;88.04
41945;BME280;63122;52.424;13.458;2022-11-11T03:17:14;102163.03;;;7.81;88.83
41945;BME280;63122;52.424;13.458;2022-11-11T03:19:56;102157.22;;;7.75;89.17
41945;BME280;63122;52.424;13.458;2022-11-11T03:22:58;102151.03;;;7.62;89.80
41945;BME280;63122;52.424;13.458;2022-11-11T03:25:28;102160.31;;;7.68;89.53
41945;BME280;63122;52.424;13.458;2022-11-11T03:28:09;102154.59;;;7.61;90.26
41945;BME280;63122;52.424;13.458;2022-11-11T03:30:42;102148.97;;;7.67;90.19
41945;BME280;63122;52.424;13.458;2022-11-11T03:33:13;102145.31;;;7.70;90.17
41945;BME280;63122;52.424;13.458;2022-11-11T03:35:46;102141.78;;;7.56;90.66
41945;BME280;63122;52.424;13.458;2022-11-11T03:38:16;102137.06;;;7.61;90.42
41945;BME280;63122;52.424;13.458;2022-11-11T03:40:54;102136.75;;;7.66;90.13
41945;BME280;63122;52.424;13.458;2022-11-11T03:43:27;102129.28;;;7.74;89.82
41945;BME280;63122;52.424;13.458;2022-11-11T03:45:59;102126.56;;;7.61;90.35
41945;BME280;63122;52.424;13.458;2022-11-11T03:48:31;102122.34;;;7.59;90.29
41945;BME280;63122;52.424;13.458;2022-11-11T03:51:02;102122.72;;;7.53;91.06
41945;BME280;63122;52.424;13.458;2022-11-11T03:53:33;102116.63;;;7.67;90.74
41945;BME280;63122;52.424;13.458;2022-11-11T03:56:06;102116.47;;;7.55;90.64
41945;BME280;63122;52.424;13.458;2022-11-11T03:58:37;102108.09;;;7.48;90.81
41945;BME280;63122;52.424;13.458;2022-11-11T04:01:07;102104.81;;;7.45;91.29
41945;BME280;63122;52.424;13.458;2022-11-11T04:03:58;102106.78;;;7.56;90.85
41945;BME280;63122;52.424;13.458;2022-11-11T04:06:41;102104.41;;;7.66;89.87
41945;BME280;63122;52.424;13.458;2022-11-11T04:09:24;102110.81;;;7.61;90.09
41945;BME280;63122;52.424;13.458;2022-11-11T04:12:09;102114.94;;;7.51;90.44
41945;BME280;63122;52.424;13.458;2022-11-11T04:14:40;102112.81;;;7.43;91.14
41945;BME280;63122;52.424;13.458;2022-11-11T04:17:22;102113.44;;;7.47;90.87
41945;BME280;63122;52.424;13.458;2022-11-11T04:19:53;102120.88;;;7.40;91.24
41945;BME280;63122;52.424;13.458;2022-11-11T04:22:39;102118.16;;;7.42;91.20
41945;BME280;63122;52.424;13.458;2022-11-11T04:25:10;102110.47;;;7.39;91.52
41945;BME280;63122;52.424;13.458;2022-11-11T04:27:58;102111.69;;;7.47;91.00
41945;BME280;63122;52.424;13.458;2022-11-11T04:30:41;102109.59;;;7.53;90.78
41945;BME280;63122;52.424;13.458;2022-11-11T04:33:12;102112.06;;;7.41;91.29
41945;BME280;63122;52.424;13.458;2022-11-11T04:35:42;102120.28;;;7.35;91.57
41945;BME280;63122;52.424;13.458;2022-11-11T04:38:17;102115.25;;;7.32;91.80
41945;BME280;63122;52.424;13.458;2022-11-11T04:41:00;102117.47;;;7.38;91.40
41945;BME280;63122;52.424;13.458;2022-11-11T04:43:38;102114.03;;;7.38;91.59
41945;BME280;63122;52.424;13.458;2022-11-11T04:46:20;102119.84;;;7.28;92.06
41945;BME280;63122;52.424;13.458;2022-11-11T04:48:51;102122.84;;;7.37;91.98
41945;BME280;63122;52.424;13.458;2022-11-11T04:51:22;102128.75;;;7.40;91.64
41945;BME280;63122;52.424;13.458;2022-11-11T04:54:12;102120.41;;;7.33;91.78
41945;BME280;63122;52.424;13.458;2022-11-11T04:56:42;102130.13;;;7.46;91.33
41945;BME280;63122;52.424;13.458;2022-11-11T04:59:19;102121.63;;;7.42;91.15
41945;BME280;63122;52.424;13.458;2022-11-11T05:01:50;102121.50;;;7.44;90.95
41945;BME280;63122;52.424;13.458;2022-11-11T05:04:33;102123.88;;;7.48;90.91
41945;BME280;63122;52.424;13.458;2022-11-11T05:07:04;102115.91;;;7.35;91.58
41945;BME280;63122;52.424;13.458;2022-11-11T05:09:47;102119.16;;;7.39;91.56
41945;BME280;63122;52.424;13.458;2022-11-11T05:12:18;102118.88;;;7.44;91.50
41945;BME280;63122;52.424;13.458;2022-11-11T05:14:50;102124.88;;;7.46;90.96
41945;BME280;63122;52.424;13.458;2022-11-11T05:17:33;102127.16;;;7.38;91.70
41945;BME280;63122;52.424;13.458;2022-11-11T05:20:16;102120.22;;;7.37;91.74
41945;BME280;63122;52.424;13.458;2022-11-11T05:23:05;102116.84;;;7.34;91.89
41945;BME280;63122;52.424;13.458;2022-11-11T05:25:35;102116.72;;;7.36;91.73
41945;BME280;63122;52.424;13.458;2022-11-11T05:28:03;102125.84;;;7.30;91.99
41945;BME280;63122;52.424;13.458;2022-11-11T05:30:36;102126.13;;;7.26;92.19
41945;BME280;63122;52.424;13.458;2022-11-11T05:33:07;102129.03;;;7.35;91.81
41945;BME280;63122;52.424;13.458;2022-11-11T05:35:38;102138.97;;;7.45;91.33
41945;BME280;63122;52.424;13.458;2022-11-11T05:38:08;102141.31;;;7.35;91.72
41945;BME280;63122;52.424;13.458;2022-11-11T05:40:50;102153.41;;;7.38;91.69
41945;BME280;63122;52.424;13.458;2022-11-11T05:43:20;102154.81;;;7.43;91.37
41945;BME280;63122;52.424;13.458;2022-11-11T05:45:53;102168.31;;;7.52;90.66
41945;BME280;63122;52.424;13.458;2022-11-11T05:48:24;102188.97;;;7.43;90.79
41945;BME280;63122;52.424;13.458;2022-11-11T05:50:56;102187.81;;;7.47;91.13
41945;BME280;63122;52.424;13.458;2022-11-11T05:53:28;102190.44;;;7.47;90.80
41945;BME280;63122;52.424;13.458;2022-11-11T05:56:00;102182.38;;;7.51;90.48
41945;BME280;63122;52.424;13.458;2022-11-11T05:58:30;102170.28;;;7.48;90.60
41945;BME280;63122;52.424;13.458;2022-11-11T06:01:03;102168.31;;;7.37;91.09
41945;BME280;63122;52.424;13.458;2022-11-11T06:03:33;102169.34;;;7.34;91.26
41945;BME280;63122;52.424;13.458;2022-11-11T06:06:04;102172.34;;;7.28;91.40
41945;BME280;63122;52.424;13.458;2022-11-11T06:08:34;102180.03;;;7.31;91.82
41945;BME280;63122;52.424;13.458;2022-11-11T06:11:04;102183.50;;;7.32;91.23
41945;BME280;63122;52.424;13.458;2022-11-11T06:13:35;102186.22;;;7.30;91.11
41945;BME280;63122;52.424;13.458;2022-11-11T06:16:08;102183.41;;;7.33;90.95
41945;BME280;63122;52.424;13.458;2022-11-11T06:18:38;102197.38;;;7.19;91.69
41945;BME280;63122;52.424;13.458;2022-11-11T06:21:08;102189.56;;;7.18;91.87
41945;BME280;63122;52.424;13.458;2022-11-11T06:23:39;102189.56;;;7.18;92.08
41945;BME280;63122;52.424;13.458;2022-11-11T06:26:09;102187.06;;;7.16;92.32
41945;BME280;63122;52.424;13.458;2022-11-11T06:28:45;102192.66;;;7.10;92.74
41945;BME280;63122;52.424;13.458;2022-11-11T06:31:20;102200.72;;;7.07;93.00
41945;BME280;63122;52.424;13.458;2022-11-11T06:33:51;102196.41;;;7.06;92.95
41945;BME280;63122;52.424;13.458;2022-11-11T06:36:21;102194.81;;;7.03;93.30
41945;BME280;63122;52.424;13.458;2022-11-11T06:38:51;102199.19;;;7.03;93.20
41945;BME280;63122;52.424;13.458;2022-11-11T06:41:21;102199.69;;;7.10;93.28
41945;BME280;63122;52.424;13.458;2022-11-11T06:43:54;102189.19;;;7.10;93.22
41945;BME280;63122;52.424;13.458;2022-11-11T06:46:27;102196.69;;;7.16;92.64
41945;BME280;63122;52.424;13.458;2022-11-11T06:48:57;102192.19;;;7.18;93.14
41945;BME280;63122;52.424;13.458;2022-11-11T06:51:27;102192.66;;;7.10;93.04
41945;BME280;63122;52.424;13.458;2022-11-11T06:53:58;102188.81;;;7.16;92.92
41945;BME280;63122;52.424;13.458;2022-11-11T06:56:28;102186.94;;;7.18;92.79
41945;BME280;63122;52.424;13.458;2022-11-11T06:58:58;102185.72;;;7.09;92.85
41945;BME280;63122;52.424;13.458;2022-11-11T07:01:31;102193.69;;;7.22;92.71
41945;BME280;63122;52.424;13.458;2022-11-11T07:04:02;102182.00;;;7.13;92.77
41945;BME280;63122;52.424;13.458;2022-11-11T07:06:32;102184.44;;;7.16;92.80
41945;BME280;63122;52.424;13.458;2022-11-11T07:09:02;102179.56;;;7.25;92.25
41945;BME280;63122;52.424;13.458;2022-11-11T07:11:33;102179.28;;;7.29;92.05
41945;BME280;63122;52.424;13.458;2022-11-11T07:14:03;102191.47;;;7.30;92.35
41945;BME280;63122;52.424;13.458;2022-11-11T07:16:36;102195.69;;;7.33;91.90
41945;BME280;63122;52.424;13.458;2022-11-11T07:19:07;102203.56;;;7.33;91.90
41945;BME280;63122;52.424;13.458;2022-11-11T07:21:37;102200.00;;;7.34;91.96
41945;BME280;63122;52.424;13.458;2022-11-11T07:24:08;102206.94;;;7.35;91.88
41945;BME280;63122;52.424;13.458;2022-11-11T07:26:39;102207.88;;;7.34;91.78
41945;BME280;63122;52.424;13.458;2022-11-11T07:29:09;102199.53;;;7.42;91.54
41945;BME280;63122;52.424;13.458;2022-11-11T07:31:43;102206.19;;;7.33;91.73
41945;BME280;63122;52.424;13.458;2022-11-11T07:34:14;102202.63;;;7.34;91.50
41945;BME280;63122;52.424;13.458;2022-11-11T07:36:45;102198.78;;;7.40;91.19
41945;BME280;63122;52.424;13.458;2022-11-11T07:39:15;102206.13;;;7.63;90.64
41945;BME280;63122;52.424;13.458;2022-11-11T07:41:45;102205.16;;;7.64;90.23
41945;BME280;63122;52.424;13.458;2022-11-11T07:44:16;102216.34;;;7.54;90.44
41945;BME280;63122;52.424;13.458;2022-11-11T07:46:49;102222.81;;;7.62;90.20
41945;BME280;63122;52.424;13.458;2022-11-11T07:49:20;102214.53;;;7.69;89.74
41945;BME280;63122;52.424;13.458;2022-11-11T07:51:50;102234.34;;;7.60;89.62
41945;BME280;63122;52.424;13.458;2022-11-11T07:54:21;102224.56;;;7.62;90.06
41945;BME280;63122;52.424;13.458;2022-11-11T07:56:51;102240.53;;;7.59;90.05
41945;BME280;63122;52.424;13.458;2022-11-11T07:59:21;102237.16;;;7.57;90.33
41945;BME280;63122;52.424;13.458;2022-11-11T08:01:54;102231.81;;;7.73;89.65
41945;BME280;63122;52.424;13.458;2022-11-11T08:04:24;102237.44;;;7.67;89.53
41945;BME280;63122;52.424;13.458;2022-11-11T08:06:54;102229.38;;;7.70;90.02
41945;BME280;63122;52.424;13.458;2022-11-11T08:09:24;102241.56;;;7.71;89.67
41945;BME280;63122;52.424;13.458;2022-11-11T08:11:55;102244.94;;;7.73;89.67
41945;BME280;63122;52.424;13.458;2022-11-11T08:14:37;102246.75;;;7.72;89.47
41945;BME280;63122;52.424;13.458;2022-11-11T08:17:10;102255.63;;;7.70;89.61
41945;BME280;63122;52.424;13.458;2022-11-11T08:19:40;102253.88;;;7.70;90.09
41945;BME280;63122;52.424;13.458;2022-11-11T08:22:10;102252.94;;;7.71;90.01
41945;BME280;63122;52.424;13.458;2022-11-11T08:24:43;102248.44;;;7.73;89.45
41945;BME280;63122;52.424;13.458;2022-11-11T08:27:31;102250.63;;;7.94;89.05
41945;BME280;63122;52.424;13.458;2022-11-11T08:30:03;102271.19;;;8.02;88.45
41945;BME280;63122;52.424;13.458;2022-11-11T08:32:37;102274.03;;;7.99;88.59
41945;BME280;63122;52.424;13.458;2022-11-11T08:35:07;102276.19;;;8.06;88.26
41945;BME280;63122;52.424;13.458;2022-11-11T08:37:37;102272.59;;;8.07;88.06
41945;BME280;63122;52.424;13.458;2022-11-11T08:40:08;102272.41;;;8.11;87.73
41945;BME280;63122;52.424;13.458;2022-11-11T08:42:41;102269.31;;;8.18;87.37
41945;BME280;63122;52.424;13.458;2022-11-11T08:45:11;102277.00;;;8.21;87.37
41945;BME280;63122;52.424;13.458;2022-11-11T08:47:45;102284.22;;;8.32;87.07
41945;BME280;63122;52.424;13.458;2022-11-11T08:50:16;102286.53;;;8.52;85.92
41945;BME280;63122;52.424;13.458;2022-11-11T08:52:47;102284.00;;;8.50;85.51
41945;BME280;63122;52.424;13.458;2022-11-11T08:55:18;102280.59;;;8.62;85.13
41945;BME280;63122;52.424;13.458;2022-11-11T08:57:56;102286.53;;;8.66;84.93
41945;BME280;63122;52.424;13.458;2022-11-11T09:01:17;102298.47;;;8.85;83.82
41945;BME280;63122;52.424;13.458;2022-11-11T09:04:20;102302.78;;;8.86;83.28
41945;BME280;63122;52.424;13.458;2022-11-11T09:07:11;102305.19;;;8.89;82.95
41945;BME280;63122;52.424;13.458;2022-11-11T09:09:41;102317.66;;;9.00;82.43
41945;BME280;63122;52.424;13.458;2022-11-11T09:12:12;102316.72;;;9.01;82.01
41945;BME280;63122;52.424;13.458;2022-11-11T09:14:42;102304.50;;;9.00;81.43
41945;BME280;63122;52.424;13.458;2022-11-11T09:17:13;102319.06;;;9.05;82.04
41945;BME280;63122;52.424;13.458;2022-11-11T09:19:46;102311.19;;;9.18;81.53
41945;BME280;63122;52.424;13.458;2022-11-11T09:22:16;102312.91;;;9.32;80.86
41945;BME280;63122;52.424;13.458;2022-11-11T09:24:46;102319.00;;;9.33;80.27
41945;BME280;63122;52.424;13.458;2022-11-11T09:27:18;102319.75;;;9.35;80.16
41945;BME280;63122;52.424;13.458;2022-11-11T09:29:48;102310.38;;;9.31;80.65
41945;BME280;63122;52.424;13.458;2022-11-11T09:32:18;102315.03;;;9.40;80.46
41945;BME280;63122;52.424;13.458;2022-11-11T09:34:51;102325.03;;;9.61;79.49
41945;BME280;63122;52.424;13.458;2022-11-11T09:37:23;102326.13;;;9.58;78.50
41945;BME280;63122;52.424;13.458;2022-11-11T09:39:53;102327.16;;;9.56;78.77
41945;BME280;63122;52.424;13.458;2022-11-11T09:42:32;102319.38;;;9.54;79.60
41945;BME280;63122;52.424;13.458;2022-11-11T09:45:15;102322.31;;;9.62;79.18
41945;BME280;63122;52.424;13.458;2022-11-11T09:47:55;102339.50;;;9.68;79.08
41945;BME280;63122;52.424;13.458;2022-11-11T09:50:39;102335.06;;;9.69;78.75
41945;BME280;63122;52.424;13.458;2022-11-11T09:53:16;102343.91;;;9.68;78.97
41945;BME280;63122;52.424;13.458;2022-11-11T09:55:51;102339.59;;;9.67;79.27
41945;BME280;63122;52.424;13.458;2022-11-11T09:58:29;102341.41;;;9.66;79.25
41945;BME280;63122;52.424;13.458;2022-11-11T10:01:06;102343.91;;;9.68;78.93
41945;BME280;63122;52.424;13.458;2022-11-11T10:03:41;102349.19;;;9.68;79.10
41945;BME280;63122;52.424;13.458;2022-11-11T10:06:20;102357.84;;;9.70;78.93
41945;BME280;63122;52.424;13.458;2022-11-11T10:08:55;102350.78;;;9.70;78.92
41945;BME280;63122;52.424;13.458;2022-11-11T10:11:40;102354.47;;;9.80;78.96
41945;BME280;63122;52.424;13.458;2022-11-11T10:14:13;102356.88;;;9.84;78.68
41945;BME280;63122;52.424;13.458;2022-11-11T10:16:51;102360.16;;;9.87;78.81
41945;BME280;63122;52.424;13.458;2022-11-11T10:19:28;102356.16;;;9.82;79.18
41945;BME280;63122;52.424;13.458;2022-11-11T10:22:19;102362.69;;;9.89;78.84
41945;BME280;63122;52.424;13.458;2022-11-11T10:24:57;102356.38;;;9.91;78.94
41945;BME280;63122;52.424;13.458;2022-11-11T10:27:32;102351.19;;;9.90;79.28
41945;BME280;63122;52.424;13.458;2022-11-11T10:30:13;102354.69;;;9.90;80.07
41945;BME280;63122;52.424;13.458;2022-11-11T10:32:49;102346.78;;;9.90;79.53
41945;BME280;63122;52.424;13.458;2022-11-11T10:35:24;102351.41;;;10.00;78.77
41945;BME280;63122;52.424;13.458;2022-11-11T10:38:05;102343.81;;;10.08;78.72
41945;BME280;63122;52.424;13.458;2022-11-11T10:40:46;102347.72;;;10.15;78.28
41945;BME280;63122;52.424;13.458;2022-11-11T10:43:21;102342.00;;;10.21;77.91
41945;BME280;63122;52.424;13.458;2022-11-11T10:45:58;102343.47;;;10.26;77.11
41945;BME280;63122;52.424;13.458;2022-11-11T10:48:40;102342.06;;;10.33;76.71
41945;BME280;63122;52.424;13.458;2022-11-11T10:51:13;102346.00;;;10.40;76.74
41945;BME280;63122;52.424;13.458;2022-11-11T10:53:53;102349.38;;;10.42;75.97
41945;BME280;63122;52.424;13.458;2022-11-11T10:56:28;102339.84;;;10.52;75.34
41945;BME280;63122;52.424;13.458;2022-11-11T10:59:09;102347.31;;;10.59;75.05
41945;BME280;63122;52.424;13.458;2022-11-11T11:01:49;102335.25;;;10.68;74.56
41945;BME280;63122;52.424;13.458;2022-11-11T11:04:28;102333.03;;;10.74;73.88
41945;BME280;63122;52.424;13.458;2022-11-11T11:07:02;102341.13;;;10.84;73.33
41945;BME280;63122;52.424;13.458;2022-11-11T11:09:40;102321.78;;;10.84;70.43
41945;BME280;63122;52.424;13.458;2022-11-11T11:12:14;102332.97;;;10.87;70.37
41945;BME280;63122;52.424;13.458;2022-11-11T11:14:48;102322.91;;;10.92;69.90
41945;BME280;63122;52.424;13.458;2022-11-11T11:17:22;102322.19;;;10.90;69.68
41945;BME280;63122;52.424;13.458;2022-11-11T11:20:12;102323.41;;;10.98;69.47
41945;BME280;63122;52.424;13.458;2022-11-11T11:22:48;102311.66;;;11.02;69.35
41945;BME280;63122;52.424;13.458;2022-11-11T11:25:22;102315.72;;;10.94;69.53
41945;BME280;63122;52.424;13.458;2022-11-11T11:28:04;102308.09;;;11.03;69.70
41945;BME280;63122;52.424;13.458;2022-11-11T11:30:35;102313.13;;;11.06;68.86
41945;BME280;63122;52.424;13.458;2022-11-11T11:33:06;102307.31;;;11.01;69.25
41945;BME280;63122;52.424;13.458;2022-11-11T11:35:38;102314.09;;;11.05;69.11
41945;BME280;63122;52.424;13.458;2022-11-11T11:38:11;102301.63;;;11.07;68.98
41945;BME280;63122;52.424;13.458;2022-11-11T11:40:52;102301.00;;;11.15;68.48
41945;BME280;63122;52.424;13.458;2022-11-11T11:43:24;102301.84;;;11.04;68.54
41945;BME280;63122;52.424;13.458;2022-11-11T11:45:56;102299.41;;;11.01;68.68
41945;BME280;63122;52.424;13.458;2022-11-11T11:48:44;102295.94;;;11.00;68.47
41945;BME280;63122;52.424;13.458;2022-11-11T11:51:32;102298.44;;;11.02;69.11
41945;BME280;63122;52.424;13.458;2022-11-11T11:54:14;102299.41;;;11.01;69.49
41945;BME280;63122;52.424;13.458;2022-11-11T11:56:51;102295.72;;;11.15;68.86
41945;BME280;63122;52.424;13.458;2022-11-11T11:59:29;102302.81;;;11.14;68.82
41945;BME280;63122;52.424;13.458;2022-11-11T12:02:07;102291.78;;;11.20;68.55
41945;BME280;63122;52.424;13.458;2022-11-11T12:05:03;102289.97;;;11.09;69.17
41945;BME280;63122;52.424;13.458;2022-11-11T12:07:58;102294.66;;;11.17;69.23
41945;BME280;63122;52.424;13.458;2022-11-11T12:10:40;102295.53;;;11.18;69.09
41945;BME280;63122;52.424;13.458;2022-11-11T12:13:23;102292.03;;;11.17;68.62
41945;BME280;63122;52.424;13.458;2022-11-11T12:16:03;102294.44;;;11.20;69.05
41945;BME280;63122;52.424;13.458;2022-11-11T12:18:50;102291.59;;;11.35;68.66
41945;BME280;63122;52.424;13.458;2022-11-11T12:21:26;102296.25;;;11.20;68.77
41945;BME280;63122;52.424;13.458;2022-11-11T12:24:05;102283.88;;;11.20;68.84
41945;BME280;63122;52.424;13.458;2022-11-11T12:26:46;102285.44;;;11.23;69.12
41945;BME280;63122;52.424;13.458;2022-11-11T12:29:35;102282.69;;;11.24;68.64
41945;BME280;63122;52.424;13.458;2022-11-11T12:32:34;102283.44;;;11.38;68.05
41945;BME280;63122;52.424;13.458;2022-11-11T12:35:20;102280.41;;;11.31;67.62
41945;BME280;63122;52.424;13.458;2022-11-11T12:37:59;102294.34;;;11.22;67.82
41945;BME280;63122;52.424;13.458;2022-11-11T12:40:38;102283.44;;;11.38;67.78
41945;BME280;63122;52.424;13.458;2022-11-11T12:43:17;102292.09;;;11.40;67.47
41945;BME280;63122;52.424;13.458;2022-11-11T12:45:58;102289.78;;;11.35;67.24
41945;BME280;63122;52.424;13.458;2022-11-11T12:48:48;102292.91;;;11.41;67.54
41945;BME280;63122;52.424;13.458;2022-11-11T12:51:30;102283.69;;;11.35;67.57
41945;BME280;63122;52.424;13.458;2022-11-11T12:54:12;102287.88;;;11.37;67.41
41945;BME280;63122;52.424;13.458;2022-11-11T12:56:49;102285.47;;;11.34;67.98
41945;BME280;63122;52.424;13.458;2022-11-11T12:59:28;102283.69;;;11.35;67.67
41945;BME280;63122;52.424;13.458;2022-11-11T13:02:15;102288.00;;;11.36;68.58
41945;BME280;63122;52.424;13.458;2022-11-11T13:04:57;102282.00;;;11.57;67.95
41945;BME280;63122;52.424;13.458;2022-11-11T13:10:39;102290.56;;;11.49;67.20
41945;BME280;63122;52.424;13.458;2022-11-11T13:13:33;102273.13;;;11.46;67.64
41945;BME280;63122;52.424;13.458;2022-11-11T13:16:07;102280.22;;;11.46;67.75
41945;BME280;63122;52.424;13.458;2022-11-11T13:18:45;102270.38;;;11.48;67.18
41945;BME280;63122;52.424;13.458;2022-11-11T13:21:23;102270.22;;;11.49;67.45
41945;BME280;63122;52.424;13.458;2022-11-11T13:23:57;102272.91;;;11.61;67.06
41945;BME280;63122;52.424;13.458;2022-11-11T13:26:31;102267.84;;;11.46;67.14
41945;BME280;63122;52.424;13.458;2022-11-11T13:29:17;102269.50;;;11.47;67.46
41945;BME280;63122;52.424;13.458;2022-11-11T13:31:55;102270.81;;;11.42;67.54
41945;BME280;63122;52.424;13.458;2022-11-11T13:34:31;102275.50;;;11.38;67.58